Time,TemperatureF,DewpointF,PressureIn,WindDirection,WindDirectionDegrees,WindSpeedMPH,WindSpeedGustMPH,Humidity,HourlyPrecipIn,Conditions,Clouds,dailyrainin,SolarRadiationWatts/m^2,SoftwareType,DateUTC
2013-04-01 00:02:00,36.0,33.0,-100.00,SSE,151,2.0,4.0,91,0.00,,,0.00,0.000000,,2013-04-01 08:02:00,
2013-04-01 00:12:00,36.0,33.0,-100.00,SSE,151,2.0,4.0,91,0.00,,,0.00,0.000000,,2013-04-01 08:12:00,
2013-04-01 00:21:00,36.0,33.0,-100.00,SSE,151,2.0,4.0,91,0.00,,,0.00,0.000000,,2013-04-01 08:21:00,
2013-04-01 00:43:00,34.0,32.0,-100.00,SE,146,2.0,4.0,94,0.00,,,0.00,0.000000,,2013-04-01 08:43:00,
2013-04-01 00:53:00,34.0,32.0,-100.00,SE,146,2.0,4.0,94,0.00,,,0.00,0.000000,,2013-04-01 08:53:00,
2013-04-01 01:02:00,34.0,32.0,-100.00,SE,146,2.0,4.0,94,0.00,,,0.00,0.000000,,2013-04-01 09:02:00,
2013-04-01 01:12:00,34.0,32.0,-100.00,SE,146,2.0,4.0,94,0.00,,,0.00,0.000000,,2013-04-01 09:12:00,
2013-04-01 01:21:00,34.0,32.0,-100.00,SE,146,2.0,4.0,94,0.00,,,0.00,0.000000,,2013-04-01 09:21:00,
2013-04-01 01:43:00,34.0,33.0,-100.00,SSW,202,0.0,0.0,98,0.00,,,0.00,0.000000,,2013-04-01 09:43:00,
2013-04-01 01:53:00,34.0,33.0,-100.00,SSW,202,0.0,0.0,98,0.00,,,0.00,0.000000,,2013-04-01 09:53:00,
2013-04-01 02:03:00,34.0,33.0,-100.00,SSW,202,0.0,0.0,98,0.00,,,0.00,0.000000,,2013-04-01 10:03:00,
2013-04-01 02:12:00,34.0,33.0,-100.00,SSW,202,0.0,0.0,98,0.00,,,0.00,0.000000,,2013-04-01 10:12:00,
2013-04-01 02:22:00,34.0,33.0,-100.00,SSW,202,0.0,0.0,98,0.00,,,0.00,0.000000,,2013-04-01 10:22:00,
2013-04-01 02:43:00,32.0,31.0,-100.00,SSE,151,0.0,1.0,97,0.00,,,0.00,0.000000,,2013-04-01 10:43:00,
2013-04-01 02:53:00,32.0,31.0,-100.00,SSE,151,0.0,1.0,97,0.00,,,0.00,0.000000,,2013-04-01 10:53:00,
2013-04-01 03:02:00,32.0,31.0,-100.00,SSE,151,0.0,1.0,97,0.00,,,0.00,0.000000,,2013-04-01 11:02:00,
2013-04-01 03:12:00,32.0,31.0,-100.00,SSE,151,0.0,1.0,97,0.00,,,0.00,0.000000,,2013-04-01 11:12:00,
2013-04-01 03:22:00,32.0,31.0,-100.00,SSE,151,0.0,1.0,97,0.00,,,0.00,0.000000,,2013-04-01 11:22:00,
2013-04-01 03:43:00,32.0,32.0,-100.00,South,177,0.0,0.0,98,0.00,,,0.00,0.000000,,2013-04-01 11:43:00,
2013-04-01 03:53:00,32.0,32.0,-100.00,South,177,0.0,0.0,98,0.00,,,0.00,0.000000,,2013-04-01 11:53:00,
2013-04-01 04:02:00,32.0,32.0,-100.00,South,177,0.0,0.0,98,0.00,,,0.00,0.000000,,2013-04-01 12:02:00,
2013-04-01 04:12:00,32.0,32.0,-100.00,South,177,0.0,0.0,98,0.00,,,0.00,0.000000,,2013-04-01 12:12:00,
2013-04-01 04:21:00,32.0,32.0,-100.00,South,177,0.0,0.0,98,0.00,,,0.00,0.000000,,2013-04-01 12:21:00,
2013-04-01 04:43:00,32.0,32.0,-100.00,SW,218,0.0,0.0,100,0.02,,,0.02,0.000000,,2013-04-01 12:43:00,
2013-04-01 04:53:00,32.0,32.0,-100.00,SW,218,0.0,0.0,100,0.02,,,0.02,0.000000,,2013-04-01 12:53:00,
2013-04-01 05:02:00,32.0,32.0,-100.00,SW,218,0.0,0.0,100,0.02,,,0.02,0.000000,,2013-04-01 13:02:00,
2013-04-01 05:12:00,32.0,32.0,-100.00,SW,218,0.0,0.0,100,0.02,,,0.02,0.000000,,2013-04-01 13:12:00,
2013-04-01 05:21:00,32.0,32.0,-100.00,SW,218,0.0,0.0,100,0.02,,,0.02,0.000000,,2013-04-01 13:21:00,
2013-04-01 05:43:00,32.0,32.0,-100.00,South,189,0.0,1.0,100,-99.99,,,-99.99,0.000000,,2013-04-01 13:43:00,
2013-04-01 05:52:00,32.0,32.0,-100.00,South,189,0.0,1.0,100,-99.99,,,-99.99,0.000000,,2013-04-01 13:52:00,
2013-04-01 06:03:00,32.0,32.0,-100.00,South,189,0.0,1.0,100,-99.99,,,-99.99,0.000000,,2013-04-01 14:03:00,
2013-04-01 06:12:00,32.0,32.0,-100.00,South,189,0.0,1.0,100,-99.99,,,-99.99,0.000000,,2013-04-01 14:12:00,
2013-04-01 06:21:00,32.0,32.0,-100.00,South,189,0.0,1.0,100,-99.99,,,-99.99,0.000000,,2013-04-01 14:21:00,
2013-04-01 06:43:00,32.0,32.0,-100.00,SW,233,0.0,0.0,100,-99.99,,,0.00,0.000000,,2013-04-01 14:43:00,
2013-04-01 06:53:00,32.0,32.0,-100.00,SW,233,0.0,0.0,100,-99.99,,,0.00,0.000000,,2013-04-01 14:53:00,
2013-04-01 07:02:00,32.0,32.0,-100.00,SW,233,0.0,0.0,100,-99.99,,,0.00,0.000000,,2013-04-01 15:02:00,
2013-04-01 07:12:00,32.0,32.0,-100.00,SW,233,0.0,0.0,100,-99.99,,,0.00,0.000000,,2013-04-01 15:12:00,
2013-04-01 07:22:00,32.0,32.0,-100.00,SW,233,0.0,0.0,100,-99.99,,,0.00,0.000000,,2013-04-01 15:22:00,
2013-04-01 07:43:00,32.0,32.0,-100.00,WNW,297,0.0,0.0,100,0.01,,,0.01,1.000000,,2013-04-01 15:43:00,
2013-04-01 07:53:00,32.0,32.0,-100.00,WNW,297,0.0,0.0,100,0.01,,,0.01,1.000000,,2013-04-01 15:53:00,
2013-04-01 08:02:00,32.0,32.0,-100.00,WNW,297,0.0,0.0,100,0.01,,,0.01,1.000000,,2013-04-01 16:02:00,
2013-04-01 08:12:00,32.0,32.0,-100.00,WNW,297,0.0,0.0,100,0.01,,,0.01,1.000000,,2013-04-01 16:12:00,
2013-04-01 08:22:00,32.0,32.0,-100.00,WNW,297,0.0,0.0,100,0.01,,,0.01,1.000000,,2013-04-01 16:22:00,
2013-04-01 09:42:00,32.0,32.0,-100.00,WNW,298,0.0,0.0,100,-99.99,,,0.03,30.000000,,2013-04-01 17:42:00,
2013-04-01 09:53:00,32.0,32.0,-100.00,WNW,298,0.0,0.0,100,-99.99,,,0.03,30.000000,,2013-04-01 17:53:00,
2013-04-01 10:02:00,32.0,32.0,-100.00,WNW,298,0.0,0.0,100,-99.99,,,0.03,30.000000,,2013-04-01 18:02:00,
2013-04-01 10:11:00,32.0,32.0,-100.00,WNW,298,0.0,0.0,100,-99.99,,,0.03,30.000000,,2013-04-01 18:11:00,
2013-04-01 10:21:00,32.0,32.0,-100.00,WNW,298,0.0,0.0,100,-99.99,,,0.03,30.000000,,2013-04-01 18:21:00,
2013-04-01 10:43:00,32.0,32.0,-100.00,WNW,300,0.0,0.0,100,0.02,,,0.05,58.000000,,2013-04-01 18:43:00,
2013-04-01 10:53:00,32.0,32.0,-100.00,WNW,300,0.0,0.0,100,0.02,,,0.05,58.000000,,2013-04-01 18:53:00,
2013-04-01 11:03:00,32.0,32.0,-100.00,WNW,300,0.0,0.0,100,0.02,,,0.05,58.000000,,2013-04-01 19:03:00,
2013-04-01 11:12:00,32.0,32.0,-100.00,WNW,300,0.0,0.0,100,0.02,,,0.05,58.000000,,2013-04-01 19:12:00,
2013-04-01 11:22:00,32.0,32.0,-100.00,WNW,300,0.0,0.0,100,0.02,,,0.05,58.000000,,2013-04-01 19:22:00,
2013-04-01 11:43:00,32.0,32.0,-100.00,WNW,303,0.0,2.0,100,0.01,,,0.06,89.000000,,2013-04-01 19:43:00,
2013-04-01 11:53:00,32.0,32.0,-100.00,WNW,303,0.0,2.0,100,0.01,,,0.06,89.000000,,2013-04-01 19:53:00,
2013-04-01 12:02:00,32.0,32.0,-100.00,WNW,303,0.0,2.0,100,0.01,,,0.06,89.000000,,2013-04-01 20:02:00,
2013-04-01 12:12:00,32.0,32.0,-100.00,WNW,303,0.0,2.0,100,0.01,,,0.06,89.000000,,2013-04-01 20:12:00,
2013-04-01 12:21:00,32.0,32.0,-100.00,WNW,303,0.0,2.0,100,0.01,,,0.06,89.000000,,2013-04-01 20:21:00,
2013-04-01 12:52:00,32.0,32.0,-100.00,NW,305,0.0,1.0,100,-99.99,,,0.04,105.000000,,2013-04-01 20:52:00,
2013-04-01 13:02:00,32.0,32.0,-100.00,NW,305,0.0,1.0,100,-99.99,,,0.04,105.000000,,2013-04-01 21:02:00,
2013-04-01 13:11:00,32.0,32.0,-100.00,NW,305,0.0,1.0,100,-99.99,,,0.04,105.000000,,2013-04-01 21:11:00,
2013-04-01 13:22:00,32.0,32.0,-100.00,NW,305,0.0,1.0,100,-99.99,,,0.04,105.000000,,2013-04-01 21:22:00,
2013-04-01 13:43:00,32.0,32.0,-100.00,NNW,340,0.0,1.0,100,-99.99,,,0.03,133.000000,,2013-04-01 21:43:00,
2013-04-01 13:53:00,32.0,32.0,-100.00,NNW,340,0.0,1.0,100,-99.99,,,0.03,133.000000,,2013-04-01 21:53:00,
2013-04-01 14:02:00,32.0,32.0,-100.00,NNW,340,0.0,1.0,100,-99.99,,,0.03,133.000000,,2013-04-01 22:02:00,
2013-04-01 14:12:00,32.0,32.0,-100.00,NNW,340,0.0,1.0,100,-99.99,,,0.03,133.000000,,2013-04-01 22:12:00,
2013-04-01 14:22:00,32.0,32.0,-100.00,NNW,340,0.0,1.0,100,-99.99,,,0.03,133.000000,,2013-04-01 22:22:00,
2013-04-01 14:43:00,34.0,34.0,-100.00,WNW,300,1.0,2.0,100,0.00,,,0.03,131.000000,,2013-04-01 22:43:00,
2013-04-01 14:52:00,34.0,34.0,-100.00,WNW,300,1.0,2.0,100,0.00,,,0.03,131.000000,,2013-04-01 22:52:00,
2013-04-01 15:02:00,34.0,34.0,-100.00,WNW,300,1.0,2.0,100,0.00,,,0.03,131.000000,,2013-04-01 23:02:00,
2013-04-01 15:12:00,34.0,34.0,-100.00,WNW,300,1.0,2.0,100,0.00,,,0.03,131.000000,,2013-04-01 23:12:00,
2013-04-01 15:22:00,34.0,34.0,-100.00,WNW,300,1.0,2.0,100,0.00,,,0.03,131.000000,,2013-04-01 23:22:00,
2013-04-01 15:43:00,32.0,32.0,-100.00,WNW,301,1.0,2.0,100,-99.99,,,0.02,59.000000,,2013-04-01 23:43:00,
2013-04-01 15:53:00,32.0,32.0,-100.00,WNW,301,1.0,2.0,100,-99.99,,,0.02,59.000000,,2013-04-01 23:53:00,
2013-04-01 16:02:00,32.0,32.0,-100.00,WNW,301,1.0,2.0,100,-99.99,,,0.02,59.000000,,2013-04-02 00:02:00,
2013-04-01 16:11:00,32.0,32.0,-100.00,WNW,301,1.0,2.0,100,-99.99,,,0.02,59.000000,,2013-04-02 00:11:00,
2013-04-01 16:21:00,32.0,32.0,-100.00,WNW,301,1.0,2.0,100,-99.99,,,0.02,59.000000,,2013-04-02 00:21:00,
2013-04-01 16:43:00,32.0,32.0,-100.00,WNW,298,1.0,2.0,100,0.01,,,0.03,50.000000,,2013-04-02 00:43:00,
2013-04-01 16:53:00,32.0,32.0,-100.00,WNW,298,1.0,2.0,100,0.01,,,0.03,50.000000,,2013-04-02 00:53:00,
2013-04-01 17:02:00,32.0,32.0,-100.00,WNW,298,1.0,2.0,100,0.01,,,0.03,50.000000,,2013-04-02 01:02:00,
2013-04-01 17:11:00,32.0,32.0,-100.00,WNW,298,1.0,2.0,100,0.01,,,0.03,50.000000,,2013-04-02 01:11:00,
2013-04-01 17:21:00,32.0,32.0,-100.00,WNW,298,1.0,2.0,100,0.01,,,0.03,50.000000,,2013-04-02 01:21:00,
2013-04-01 17:43:00,32.0,32.0,-100.00,West,274,0.0,3.0,100,0.01,,,0.04,62.000000,,2013-04-02 01:43:00,
2013-04-01 17:53:00,32.0,32.0,-100.00,West,274,0.0,3.0,100,0.01,,,0.04,62.000000,,2013-04-02 01:53:00,
2013-04-01 18:02:00,32.0,32.0,-100.00,West,274,0.0,3.0,100,0.01,,,0.04,62.000000,,2013-04-02 02:02:00,
2013-04-01 18:12:00,32.0,32.0,-100.00,West,274,0.0,3.0,100,0.01,,,0.04,62.000000,,2013-04-02 02:12:00,
2013-04-01 18:21:00,32.0,32.0,-100.00,West,274,0.0,3.0,100,0.01,,,0.04,62.000000,,2013-04-02 02:21:00,
2013-04-01 18:42:00,32.0,32.0,-100.00,South,183,1.0,2.0,100,-99.99,,,0.02,27.000000,,2013-04-02 02:42:00,
2013-04-01 18:53:00,32.0,32.0,-100.00,South,183,1.0,2.0,100,-99.99,,,0.02,27.000000,,2013-04-02 02:53:00,
2013-04-01 19:02:00,32.0,32.0,-100.00,South,183,1.0,2.0,100,-99.99,,,0.02,27.000000,,2013-04-02 03:02:00,
2013-04-01 19:12:00,32.0,32.0,-100.00,South,183,1.0,2.0,100,-99.99,,,0.02,27.000000,,2013-04-02 03:12:00,
2013-04-01 19:21:00,32.0,32.0,-100.00,South,183,1.0,2.0,100,-99.99,,,0.02,27.000000,,2013-04-02 03:21:00,
2013-04-01 19:43:00,34.0,33.0,-100.00,SW,218,2.0,6.0,97,-99.99,,,0.00,12.000000,,2013-04-02 03:43:00,
2013-04-01 19:53:00,34.0,33.0,-100.00,SW,218,2.0,6.0,97,-99.99,,,0.00,12.000000,,2013-04-02 03:53:00,
2013-04-01 20:02:00,34.0,33.0,-100.00,SW,218,2.0,6.0,97,-99.99,,,0.00,12.000000,,2013-04-02 04:02:00,
2013-04-01 20:12:00,34.0,33.0,-100.00,SW,218,2.0,6.0,97,-99.99,,,0.00,12.000000,,2013-04-02 04:12:00,
2013-04-01 20:22:00,34.0,33.0,-100.00,SW,218,2.0,6.0,97,-99.99,,,0.00,12.000000,,2013-04-02 04:22:00,
2013-04-01 20:43:00,36.0,34.0,-100.00,NW,307,2.0,7.0,93,0.00,,,0.00,3.000000,,2013-04-02 04:43:00,
2013-04-01 20:53:00,36.0,34.0,-100.00,NW,307,2.0,7.0,93,0.00,,,0.00,3.000000,,2013-04-02 04:53:00,
2013-04-01 21:02:00,36.0,34.0,-100.00,NW,307,2.0,7.0,93,0.00,,,0.00,3.000000,,2013-04-02 05:02:00,
2013-04-01 21:12:00,36.0,34.0,-100.00,NW,307,2.0,7.0,93,0.00,,,0.00,3.000000,,2013-04-02 05:12:00,
2013-04-01 21:22:00,36.0,34.0,-100.00,NW,307,2.0,7.0,93,0.00,,,0.00,3.000000,,2013-04-02 05:22:00,
2013-04-01 21:43:00,36.0,32.0,-100.00,WNW,303,7.0,12.0,88,0.01,,,0.01,0.000000,,2013-04-02 05:43:00,
2013-04-01 21:52:00,36.0,32.0,-100.00,WNW,303,7.0,12.0,88,0.01,,,0.01,0.000000,,2013-04-02 05:52:00,
2013-04-01 22:02:00,36.0,32.0,-100.00,WNW,303,7.0,12.0,88,0.01,,,0.01,0.000000,,2013-04-02 06:02:00,
2013-04-01 22:12:00,36.0,32.0,-100.00,WNW,303,7.0,12.0,88,0.01,,,0.01,0.000000,,2013-04-02 06:12:00,
2013-04-01 22:21:00,36.0,32.0,-100.00,WNW,303,7.0,12.0,88,0.01,,,0.01,0.000000,,2013-04-02 06:21:00,
2013-04-01 22:42:00,36.0,31.0,-100.00,WNW,299,7.0,11.0,84,-99.99,,,0.00,0.000000,,2013-04-02 06:42:00,
2013-04-01 22:52:00,36.0,31.0,-100.00,WNW,299,7.0,11.0,84,-99.99,,,0.00,0.000000,,2013-04-02 06:52:00,
2013-04-01 23:02:00,36.0,31.0,-100.00,WNW,299,7.0,11.0,84,-99.99,,,0.00,0.000000,,2013-04-02 07:02:00,
2013-04-01 23:12:00,36.0,31.0,-100.00,WNW,299,7.0,11.0,84,-99.99,,,0.00,0.000000,,2013-04-02 07:12:00,
2013-04-01 23:21:00,36.0,31.0,-100.00,WNW,299,7.0,11.0,84,-99.99,,,0.00,0.000000,,2013-04-02 07:21:00,
2013-04-01 23:43:00,36.0,30.0,-100.00,WNW,303,7.0,13.0,81,0.00,,,0.00,0.000000,,2013-04-02 07:43:00,
2013-04-01 23:52:00,36.0,30.0,-100.00,WNW,303,7.0,13.0,81,0.00,,,0.00,0.000000,,2013-04-02 07:52:00,